Time;durP1;ratioP1;P1;durP2;ratioP2;P2;SDS_P1;SDS_P2;PMS_P1;PMS_P2;Temp;Humidity;BMP_temperature;BMP_pressure;BME280_temperature;BME280_humidity;BME280_pressure;Samples;Min_cycle;Max_cycle;Signal;HPM_P1;HPM_P2
2022/10/08 01:07:18;;;;;;;21.33;7.85;;;;;;;;;;7363955;19;20026;-73
2022/10/08 01:10:31;;;;;;;17.33;6.80;;;;;;;;;;7354778;19;20019;-80
2022/10/08 01:13:08;;;;;;;20.98;7.65;;;;;;;;;;7339466;19;20414;-78
2022/10/08 01:15:36;;;;;;;20.83;6.28;;;;;;;;;;7368664;19;20426;-83
2022/10/08 01:18:05;;;;;;;21.95;7.70;;;;;;;;;;7369811;19;20473;-82
2022/10/08 01:20:52;;;;;;;15.43;6.57;;;;;;;;;;7369488;19;20468;-80
2022/10/08 01:23:36;;;;;;;18.33;7.05;;;;;;;;;;7375191;19;20354;-79
2022/10/08 01:26:02;;;;;;;;;;;;;;;;;;7376965;19;20021;-80
2022/10/08 01:28:41;;;;;;;14.52;5.95;;;;;;;;;;7372362;19;19966;-83
2022/10/08 01:31:19;;;;;;;14.02;5.68;;;;;;;;;;7368162;19;20018;-80
2022/10/08 01:33:46;;;;;;;13.93;5.43;;;;;;;;;;7378634;19;20022;-81
2022/10/08 01:36:13;;;;;;;15.35;6.38;;;;;;;;;;7377018;19;20007;-81
2022/10/08 01:38:40;;;;;;;13.20;4.40;;;;;;;;;;7372142;19;19998;-82
2022/10/08 01:41:08;;;;;;;13.98;4.38;;;;;;;;;;7376000;19;20010;-82
2022/10/08 01:43:34;;;;;;;10.80;4.03;;;;;;;;;;7379201;19;20716;-81
2022/10/08 01:46:04;;;;;;;15.40;5.03;;;;;;;;;;7354973;19;20477;-82
2022/10/08 01:48:32;;;;;;;12.82;4.25;;;;;;;;;;7373796;19;20026;-81
2022/10/08 01:51:18;;;;;;;11.35;4.22;;;;;;;;;;7377753;19;20022;-81
2022/10/08 01:53:44;;;;;;;17.17;3.90;;;;;;;;;;7378854;19;20006;-82
2022/10/08 01:56:12;;;;;;;16.20;5.03;;;;;;;;;;7373568;19;20607;-81
2022/10/08 01:58:56;;;;;;;20.23;5.20;;;;;;;;;;7375366;19;20002;-81
2022/10/08 02:01:26;;;;;;;11.52;4.55;;;;;;;;;;7365910;19;20017;-83
2022/10/08 02:06:37;;;;;;;14.68;4.72;;;;;;;;;;7378902;19;20030;-81
2022/10/08 02:09:03;;;;;;;14.40;4.00;;;;;;;;;;7375820;19;19999;-82
2022/10/08 02:11:28;;;;;;;13.30;4.43;;;;;;;;;;7369966;19;20517;-83
2022/10/08 02:13:53;;;;;;;18.52;4.22;;;;;;;;;;7377483;19;20003;-81
2022/10/08 02:16:24;;;;;;;11.27;3.47;;;;;;;;;;7353675;19;20345;-83
2022/10/08 02:18:57;;;;;;;13.68;5.50;;;;;;;;;;7360206;19;19995;-80
2022/10/08 02:21:25;;;;;;;13.27;4.32;;;;;;;;;;7371822;19;20126;-82
2022/10/08 02:23:59;;;;;;;13.80;4.75;;;;;;;;;;7377195;19;20013;-81
2022/10/08 02:26:31;;;;;;;10.55;3.85;;;;;;;;;;7345824;19;20791;-81
2022/10/08 02:29:02;;;;;;;10.85;3.92;;;;;;;;;;7370576;19;20020;-82
2022/10/08 02:31:46;;;;;;;16.65;4.00;;;;;;;;;;7347651;19;20913;-84
2022/10/08 02:34:18;;;;;;;14.63;4.15;;;;;;;;;;7374559;19;20344;-81
2022/10/08 02:36:46;;;;;;;11.55;3.90;;;;;;;;;;7372255;19;20019;-81
2022/10/08 02:39:12;;;;;;;12.25;3.72;;;;;;;;;;7372338;19;20420;-81
2022/10/08 02:41:47;;;;;;;11.00;3.83;;;;;;;;;;7367314;19;20015;-81
2022/10/08 02:44:19;;;;;;;17.50;3.80;;;;;;;;;;7376783;19;20011;-82
2022/10/08 02:46:45;;;;;;;11.30;3.92;;;;;;;;;;7369992;19;20110;-81
2022/10/08 02:49:16;;;;;;;10.90;3.63;;;;;;;;;;7368992;19;20010;-82
2022/10/08 02:51:48;;;;;;;11.48;3.75;;;;;;;;;;7374386;19;20106;-80
2022/10/08 02:54:14;;;;;;;13.82;4.40;;;;;;;;;;7377705;19;20002;-83
2022/10/08 02:56:53;;;;;;;14.18;4.90;;;;;;;;;;7373683;19;20011;-80
2022/10/08 02:59:19;;;;;;;11.48;3.72;;;;;;;;;;7370847;19;20019;-84
2022/10/08 03:01:47;;;;;;;19.00;4.35;;;;;;;;;;7367695;19;20042;-82
2022/10/08 03:04:32;;;;;;;15.05;4.57;;;;;;;;;;7368702;19;20011;-80
2022/10/08 03:06:58;;;;;;;16.95;4.43;;;;;;;;;;7368021;19;20014;-81
2022/10/08 03:09:24;;;;;;;14.63;4.50;;;;;;;;;;7373955;19;20031;-81
2022/10/08 03:11:50;;;;;;;14.80;4.35;;;;;;;;;;7368758;19;19999;-80
2022/10/08 03:14:17;;;;;;;19.25;4.50;;;;;;;;;;7374395;19;20010;-84
2022/10/08 03:16:43;;;;;;;17.38;4.35;;;;;;;;;;7370562;19;19999;-81
2022/10/08 03:19:09;;;;;;;16.00;4.70;;;;;;;;;;7370199;19;20525;-84
2022/10/08 03:21:38;;;;;;;15.50;4.65;;;;;;;;;;7368626;19;20022;-81
2022/10/08 03:24:03;;;;;;;16.45;4.50;;;;;;;;;;7372605;19;20002;-80
2022/10/08 03:26:28;;;;;;;13.70;4.57;;;;;;;;;;7372722;19;20029;-84
2022/10/08 03:28:53;;;;;;;17.87;5.20;;;;;;;;;;7369482;19;20003;-80
2022/10/08 03:31:19;;;;;;;20.13;5.53;;;;;;;;;;7370382;19;20263;-81
2022/10/08 03:33:48;;;;;;;14.60;4.40;;;;;;;;;;7371443;19;20969;-81
2022/10/08 03:36:13;;;;;;;19.80;5.57;;;;;;;;;;7367041;19;20018;-82
2022/10/08 03:38:38;;;;;;;14.20;4.83;;;;;;;;;;7371911;19;20033;-82
2022/10/08 03:41:03;;;;;;;14.20;4.82;;;;;;;;;;7375069;19;20560;-80
2022/10/08 03:43:30;;;;;;;16.38;4.88;;;;;;;;;;7367763;19;19999;-82
2022/10/08 03:45:55;;;;;;;13.68;5.10;;;;;;;;;;7369673;19;20019;-81
2022/10/08 03:48:21;;;;;;;21.70;5.90;;;;;;;;;;7373826;19;20074;-82
2022/10/08 03:50:53;;;;;;;13.35;4.93;;;;;;;;;;7375830;19;20259;-81
2022/10/08 03:53:18;;;;;;;18.83;5.07;;;;;;;;;;7372510;19;20017;-80
2022/10/08 03:55:43;;;;;;;13.27;4.82;;;;;;;;;;7375242;19;20540;-82
2022/10/08 03:58:09;;;;;;;13.38;4.40;;;;;;;;;;7375415;19;20708;-82
2022/10/08 04:00:34;;;;;;;14.60;4.63;;;;;;;;;;7366127;19;20007;-82
2022/10/08 04:02:59;;;;;;;11.05;3.83;;;;;;;;;;7374471;19;20011;-82
2022/10/08 04:05:24;;;;;;;14.27;4.30;;;;;;;;;;7372957;19;20039;-83
2022/10/08 04:07:49;;;;;;;16.85;4.40;;;;;;;;;;7338513;19;19998;-80
2022/10/08 04:10:15;;;;;;;13.77;4.17;;;;;;;;;;7377841;19;20010;-82
2022/10/08 04:12:40;;;;;;;21.17;5.32;;;;;;;;;;7381388;19;20248;-82
2022/10/08 04:15:05;;;;;;;15.13;4.60;;;;;;;;;;7381446;19;20076;-81
2022/10/08 04:17:31;;;;;;;14.60;4.45;;;;;;;;;;7376720;19;20306;-81
2022/10/08 04:19:56;;;;;;;20.08;4.57;;;;;;;;;;7374043;19;20015;-84
2022/10/08 04:22:21;;;;;;;18.80;4.80;;;;;;;;;;7347941;19;20238;-81
2022/10/08 04:24:46;;;;;;;14.50;5.28;;;;;;;;;;7376552;19;20419;-82
2022/10/08 04:27:11;;;;;;;18.05;5.38;;;;;;;;;;7369182;19;20034;-82
2022/10/08 04:29:36;;;;;;;18.25;4.70;;;;;;;;;;7349091;19;20006;-84
2022/10/08 04:32:02;;;;;;;14.60;5.03;;;;;;;;;;7347717;19;20386;-84
2022/10/08 04:34:27;;;;;;;15.35;4.75;;;;;;;;;;7361653;19;20265;-81
2022/10/08 04:36:53;;;;;;;17.92;4.57;;;;;;;;;;7360514;19;20002;-82
2022/10/08 04:39:18;;;;;;;17.53;4.77;;;;;;;;;;7377598;19;20743;-81
2022/10/08 04:41:43;;;;;;;15.80;4.55;;;;;;;;;;7380827;19;20268;-82
2022/10/08 04:44:08;;;;;;;22.23;4.83;;;;;;;;;;7375632;19;20465;-83
2022/10/08 04:46:33;;;;;;;15.35;5.05;;;;;;;;;;7375165;19;20235;-85
2022/10/08 04:48:59;;;;;;;14.73;4.70;;;;;;;;;;7379927;19;20051;-82
2022/10/08 04:51:24;;;;;;;16.60;4.80;;;;;;;;;;7374414;19;20018;-83
2022/10/08 04:53:50;;;;;;;11.77;4.80;;;;;;;;;;7370218;19;20006;-82
2022/10/08 04:56:17;;;;;;;14.75;4.82;;;;;;;;;;7378653;19;20122;-84
2022/10/08 04:58:42;;;;;;;11.57;3.97;;;;;;;;;;7378905;19;20006;-81
2022/10/08 05:01:08;;;;;;;16.52;4.38;;;;;;;;;;7375906;19;20014;-82
2022/10/08 05:03:41;;;;;;;14.00;4.88;;;;;;;;;;7378960;19;20051;-83
2022/10/08 05:06:06;;;;;;;10.70;4.15;;;;;;;;;;7380187;19;20017;-81
2022/10/08 05:08:31;;;;;;;10.82;3.80;;;;;;;;;;7367818;19;20579;-83
2022/10/08 05:10:57;;;;;;;11.13;4.30;;;;;;;;;;7378578;19;20779;-81
2022/10/08 05:13:22;;;;;;;13.32;4.60;;;;;;;;;;7378948;19;20003;-83
2022/10/08 05:15:47;;;;;;;13.65;4.00;;;;;;;;;;7367791;19;20054;-81
2022/10/08 05:18:12;;;;;;;9.05;3.33;;;;;;;;;;7376410;19;20010;-81
2022/10/08 05:20:38;;;;;;;11.70;3.78;;;;;;;;;;7374466;19;20067;-78
2022/10/08 05:23:03;;;;;;;13.30;4.40;;;;;;;;;;7373169;19;20006;-82
2022/10/08 05:25:32;;;;;;;9.90;3.85;;;;;;;;;;7370448;19;20284;-82
2022/10/08 05:27:57;;;;;;;9.75;3.75;;;;;;;;;;7375206;19;19991;-79
2022/10/08 05:30:22;;;;;;;17.02;5.78;;;;;;;;;;7361752;19;19998;-84
2022/10/08 05:32:47;;;;;;;16.80;5.10;;;;;;;;;;7374690;19;20021;-80
2022/10/08 05:35:12;;;;;;;17.97;4.80;;;;;;;;;;7375736;19;20002;-83
2022/10/08 05:37:38;;;;;;;17.90;5.43;;;;;;;;;;7370873;19;20247;-81
2022/10/08 05:40:03;;;;;;;14.52;5.05;;;;;;;;;;7377164;19;20325;-82
2022/10/08 05:42:28;;;;;;;15.27;4.85;;;;;;;;;;7380942;19;20002;-78
2022/10/08 05:44:53;;;;;;;13.60;5.20;;;;;;;;;;7372606;19;20027;-84
2022/10/08 05:47:19;;;;;;;19.67;5.00;;;;;;;;;;7370456;19;20270;-79
2022/10/08 05:49:44;;;;;;;12.55;4.10;;;;;;;;;;7378606;19;20010;-82
2022/10/08 05:52:09;;;;;;;17.88;4.85;;;;;;;;;;7378510;19;20019;-81
2022/10/08 05:54:34;;;;;;;16.20;4.65;;;;;;;;;;7370028;19;19999;-79
2022/10/08 05:56:59;;;;;;;14.27;3.90;;;;;;;;;;7379526;19;20018;-82
2022/10/08 05:59:25;;;;;;;15.87;4.33;;;;;;;;;;7375973;19;20807;-82
2022/10/08 06:01:50;;;;;;;16.33;4.20;;;;;;;;;;7365522;19;20283;-80
2022/10/08 06:04:17;;;;;;;11.45;4.50;;;;;;;;;;7374889;19;20561;-80
2022/10/08 06:06:42;;;;;;;9.70;3.63;;;;;;;;;;7378258;19;20026;-79
2022/10/08 06:09:09;;;;;;;11.43;3.83;;;;;;;;;;7374221;19;20038;-79
2022/10/08 06:11:35;;;;;;;10.40;4.25;;;;;;;;;;7376439;19;20077;-82
2022/10/08 06:14:02;;;;;;;10.70;4.20;;;;;;;;;;7372212;19;20003;-79
2022/10/08 06:16:27;;;;;;;11.40;3.70;;;;;;;;;;7373299;19;20046;-79
2022/10/08 06:18:53;;;;;;;11.85;4.32;;;;;;;;;;7374734;19;19998;-82
2022/10/08 06:21:20;;;;;;;10.68;3.60;;;;;;;;;;7374222;19;20500;-79
2022/10/08 06:23:46;;;;;;;13.93;4.80;;;;;;;;;;7368372;19;20470;-80
2022/10/08 06:26:12;;;;;;;14.18;4.72;;;;;;;;;;7377018;19;20017;-78
2022/10/08 06:28:37;;;;;;;12.25;4.30;;;;;;;;;;7378526;19;20081;-83
2022/10/08 06:31:03;;;;;;;12.57;3.72;;;;;;;;;;7365185;19;20806;-82
2022/10/08 06:33:28;;;;;;;13.80;4.18;;;;;;;;;;7374836;19;20007;-83
2022/10/08 06:35:54;;;;;;;11.38;4.35;;;;;;;;;;7375859;19;20466;-82
2022/10/08 06:38:19;;;;;;;14.88;4.90;;;;;;;;;;7370326;19;20141;-83
2022/10/08 06:40:44;;;;;;;11.63;4.80;;;;;;;;;;7377510;19;20098;-83
2022/10/08 06:43:13;;;;;;;14.98;5.60;;;;;;;;;;7378297;19;20001;-83
2022/10/08 06:45:39;;;;;;;13.70;5.22;;;;;;;;;;7342525;19;20250;-82
2022/10/08 06:48:04;;;;;;;15.20;5.55;;;;;;;;;;7376222;19;20003;-83
2022/10/08 06:50:30;;;;;;;18.17;5.60;;;;;;;;;;7374875;19;20018;-82
2022/10/08 06:52:55;;;;;;;14.88;5.03;;;;;;;;;;7377752;19;20007;-82
2022/10/08 06:55:20;;;;;;;14.93;5.27;;;;;;;;;;7371910;19;20662;-82
2022/10/08 06:57:45;;;;;;;18.35;4.82;;;;;;;;;;7376057;19;20303;-82
2022/10/08 07:00:11;;;;;;;15.38;5.03;;;;;;;;;;7373728;19;20014;-82
2022/10/08 07:02:36;;;;;;;12.55;4.55;;;;;;;;;;7369861;19;19995;-83
2022/10/08 07:05:01;;;;;;;14.88;5.43;;;;;;;;;;7373760;19;20010;-83
2022/10/08 07:07:26;;;;;;;16.60;4.83;;;;;;;;;;7368911;19;20075;-82
2022/10/08 07:09:51;;;;;;;15.30;4.78;;;;;;;;;;7371495;19;20277;-82
2022/10/08 07:12:17;;;;;;;12.93;4.57;;;;;;;;;;7372103;19;20010;-83
2022/10/08 07:14:42;;;;;;;13.33;4.40;;;;;;;;;;7366105;19;20888;-82
2022/10/08 07:17:07;;;;;;;16.65;4.93;;;;;;;;;;7369408;19;20262;-83
2022/10/08 07:19:32;;;;;;;16.42;4.97;;;;;;;;;;7375140;19;20018;-82
2022/10/08 07:21:58;;;;;;;16.33;5.22;;;;;;;;;;7377984;19;20082;-81
2022/10/08 07:24:23;;;;;;;16.45;5.60;;;;;;;;;;7375498;19;20014;-82
2022/10/08 07:26:48;;;;;;;18.98;6.55;;;;;;;;;;7377911;19;20001;-82
2022/10/08 07:29:13;;;;;;;18.27;6.93;;;;;;;;;;7371368;19;20033;-81
2022/10/08 07:31:39;;;;;;;20.17;6.82;;;;;;;;;;7373440;19;20446;-82
2022/10/08 07:34:05;;;;;;;21.73;6.25;;;;;;;;;;7376677;19;20473;-82
2022/10/08 07:36:31;;;;;;;20.30;6.55;;;;;;;;;;7369937;19;20390;-82
2022/10/08 07:39:01;;;;;;;18.83;6.35;;;;;;;;;;7375834;19;20011;-82
2022/10/08 07:41:27;;;;;;;23.55;6.53;;;;;;;;;;7376284;19;20014;-83
2022/10/08 07:43:53;;;;;;;18.38;6.22;;;;;;;;;;7370186;19;19994;-82
2022/10/08 07:46:19;;;;;;;17.23;7.07;;;;;;;;;;7379252;19;20023;-82
2022/10/08 07:48:44;;;;;;;15.27;5.97;;;;;;;;;;7383344;19;20014;-81
2022/10/08 07:51:10;;;;;;;19.52;5.43;;;;;;;;;;7385011;19;20072;-81
2022/10/08 07:53:36;;;;;;;19.83;5.10;;;;;;;;;;7385491;19;20315;-80
2022/10/08 07:56:02;;;;;;;15.05;5.25;;;;;;;;;;7379657;19;20110;-82
2022/10/08 07:58:27;;;;;;;21.65;6.40;;;;;;;;;;7379414;19;20074;-82
2022/10/08 08:00:56;;;;;;;20.65;6.20;;;;;;;;;;7380530;19;20009;-83
2022/10/08 08:03:22;;;;;;;17.17;5.53;;;;;;;;;;7379999;19;20025;-83
2022/10/08 08:05:47;;;;;;;16.80;5.65;;;;;;;;;;7370734;19;20014;-83
2022/10/08 08:08:12;;;;;;;14.47;4.97;;;;;;;;;;7377989;19;20009;-81
2022/10/08 08:10:37;;;;;;;13.33;5.73;;;;;;;;;;7378987;19;20596;-80
2022/10/08 08:13:02;;;;;;;17.92;5.97;;;;;;;;;;7375181;19;20259;-82
2022/10/08 08:15:27;;;;;;;22.20;6.18;;;;;;;;;;7379501;19;20029;-82
2022/10/08 08:17:53;;;;;;;19.10;5.80;;;;;;;;;;7377505;19;20498;-82
2022/10/08 08:20:18;;;;;;;19.20;5.93;;;;;;;;;;7364552;19;20010;-82
2022/10/08 08:22:43;;;;;;;21.03;6.20;;;;;;;;;;7378317;19;20268;-82
2022/10/08 08:25:08;;;;;;;16.80;5.93;;;;;;;;;;7385374;19;20269;-80
2022/10/08 08:27:33;;;;;;;27.03;7.17;;;;;;;;;;7373988;19;20003;-79
2022/10/08 08:29:58;;;;;;;17.33;6.90;;;;;;;;;;7384356;19;20255;-79
2022/10/08 08:32:24;;;;;;;18.80;6.90;;;;;;;;;;7377051;19;20694;-81
2022/10/08 08:34:49;;;;;;;26.13;7.38;;;;;;;;;;7373824;19;20281;-80
2022/10/08 08:37:14;;;;;;;19.37;7.03;;;;;;;;;;7382543;19;20048;-81
2022/10/08 08:39:39;;;;;;;29.53;8.67;;;;;;;;;;7380906;19;20267;-80
2022/10/08 08:42:17;;;;;;;24.35;7.55;;;;;;;;;;7380117;19;20244;-80
2022/10/08 08:44:47;;;;;;;19.00;8.98;;;;;;;;;;7380946;19;19998;-80
2022/10/08 08:47:23;;;;;;;23.35;8.98;;;;;;;;;;7353130;19;20033;-83
2022/10/08 08:50:00;;;;;;;21.27;10.20;;;;;;;;;;7382996;19;20006;-81
2022/10/08 08:52:28;;;;;;;22.83;9.25;;;;;;;;;;7374776;19;20006;-82
2022/10/08 08:54:53;;;;;;;27.35;10.05;;;;;;;;;;7360097;19;20106;-82
2022/10/08 08:57:31;;;;;;;30.85;10.20;;;;;;;;;;7364397;19;20007;-82
2022/10/08 09:00:00;;;;;;;25.10;10.05;;;;;;;;;;7373029;19;20013;-82
2022/10/08 09:02:30;;;;;;;31.65;10.52;;;;;;;;;;7366956;19;20398;-81
2022/10/08 09:04:59;;;;;;;24.77;9.48;;;;;;;;;;7381760;19;19998;-81
2022/10/08 09:07:28;;;;;;;20.98;9.00;;;;;;;;;;7366403;19;20014;-83
2022/10/08 09:09:54;;;;;;;27.30;9.38;;;;;;;;;;7361867;19;20014;-82
2022/10/08 09:12:21;;;;;;;22.90;8.23;;;;;;;;;;7370387;19;20824;-81
2022/10/08 09:14:50;;;;;;;20.23;7.90;;;;;;;;;;7379803;19;20457;-81
2022/10/08 09:17:17;;;;;;;24.83;8.20;;;;;;;;;;7372193;19;19994;-82
2022/10/08 09:19:43;;;;;;;19.20;7.85;;;;;;;;;;7380794;19;20025;-82
2022/10/08 09:22:18;;;;;;;17.05;6.97;;;;;;;;;;7368236;19;20443;-83
2022/10/08 09:24:44;;;;;;;24.00;8.25;;;;;;;;;;7376594;19;20019;-81
2022/10/08 09:27:13;;;;;;;21.20;7.65;;;;;;;;;;7379436;19;20002;-81
2022/10/08 09:29:38;;;;;;;22.48;7.63;;;;;;;;;;7381045;19;20750;-82
2022/10/08 09:32:03;;;;;;;22.92;7.55;;;;;;;;;;7376182;19;19994;-82
2022/10/08 09:34:29;;;;;;;22.42;7.18;;;;;;;;;;7376936;19;20014;-81
2022/10/08 09:37:00;;;;;;;18.85;6.38;;;;;;;;;;7375302;19;20456;-82
2022/10/08 09:39:29;;;;;;;17.33;6.68;;;;;;;;;;7376469;19;20013;-80
2022/10/08 09:42:06;;;;;;;17.63;5.65;;;;;;;;;;7370412;19;20035;-83
2022/10/08 09:44:41;;;;;;;21.95;6.22;;;;;;;;;;7378434;19;20006;-81
2022/10/08 09:47:09;;;;;;;15.23;4.70;;;;;;;;;;7376749;19;20042;-85
2022/10/08 09:49:37;;;;;;;17.25;4.78;;;;;;;;;;7377824;19;19999;-82
2022/10/08 09:52:05;;;;;;;16.48;4.30;;;;;;;;;;7381791;19;20027;-83
2022/10/08 09:54:35;;;;;;;15.48;3.88;;;;;;;;;;7373695;19;19994;-83
2022/10/08 09:57:00;;;;;;;16.83;5.30;;;;;;;;;;7364868;19;20022;-82
2022/10/08 09:59:27;;;;;;;16.92;3.97;;;;;;;;;;7342984;19;20006;-81
2022/10/08 10:01:53;;;;;;;19.23;3.25;;;;;;;;;;7356681;19;20509;-82
2022/10/08 10:04:22;;;;;;;16.17;4.07;;;;;;;;;;7349358;19;20099;-83
2022/10/08 10:06:52;;;;;;;15.23;4.43;;;;;;;;;;7325569;19;20542;-81
2022/10/08 10:09:23;;;;;;;21.45;4.22;;;;;;;;;;7365078;19;20019;-83
2022/10/08 10:12:08;;;;;;;16.60;4.20;;;;;;;;;;7367984;19;20019;-83
2022/10/08 10:14:34;;;;;;;16.38;3.90;;;;;;;;;;7373116;19;20011;-82
2022/10/08 10:17:04;;;;;;;20.50;4.40;;;;;;;;;;7361949;19;20010;-82
2022/10/08 10:19:31;;;;;;;20.67;4.30;;;;;;;;;;7360955;19;20782;-82
2022/10/08 10:22:09;;;;;;;16.42;3.65;;;;;;;;;;7363844;19;20014;-82
2022/10/08 10:24:48;;;;;;;12.75;3.08;;;;;;;;;;7361025;19;20006;-82
2022/10/08 10:27:17;;;;;;;14.00;3.22;;;;;;;;;;7373140;19;20006;-82
2022/10/08 10:29:55;;;;;;;13.77;2.80;;;;;;;;;;7379847;19;20002;-82
2022/10/08 10:32:24;;;;;;;14.38;3.35;;;;;;;;;;7353939;19;20014;-81
2022/10/08 10:34:54;;;;;;;14.50;3.00;;;;;;;;;;7350126;19;20041;-84
2022/10/08 10:37:25;;;;;;;17.73;3.35;;;;;;;;;;7349553;19;20006;-83
2022/10/08 10:39:56;;;;;;;10.90;3.03;;;;;;;;;;7372559;19;20006;-82
2022/10/08 10:42:24;;;;;;;12.48;2.55;;;;;;;;;;7366901;19;20022;-82
2022/10/08 10:44:53;;;;;;;12.25;2.72;;;;;;;;;;7371072;19;20001;-82
2022/10/08 10:47:20;;;;;;;12.55;3.00;;;;;;;;;;7351039;19;20029;-81
2022/10/08 10:49:46;;;;;;;11.65;2.63;;;;;;;;;;7371129;19;20035;-82
2022/10/08 10:52:21;;;;;;;14.00;2.63;;;;;;;;;;7360560;19;20097;-81
2022/10/08 10:55:05;;;;;;;10.98;2.47;;;;;;;;;;7369699;19;20026;-84
2022/10/08 10:57:30;;;;;;;9.40;2.70;;;;;;;;;;7359183;19;20003;-84
2022/10/08 11:00:01;;;;;;;7.38;1.80;;;;;;;;;;7368494;19;20279;-83
2022/10/08 11:02:47;;;;;;;8.80;2.08;;;;;;;;;;7361514;19;20002;-83
2022/10/08 11:05:12;;;;;;;8.38;2.00;;;;;;;;;;7357951;19;20779;-83
2022/10/08 11:07:49;;;;;;;11.38;2.50;;;;;;;;;;7365389;19;20018;-82
2022/10/08 11:10:29;;;;;;;9.13;2.15;;;;;;;;;;7374694;19;20005;-81
2022/10/08 11:12:58;;;;;;;8.98;2.22;;;;;;;;;;7357651;19;20317;-81
2022/10/08 11:15:44;;;;;;;8.32;1.85;;;;;;;;;;7363081;19;20010;-84
2022/10/08 11:18:28;;;;;;;13.07;2.10;;;;;;;;;;7360902;19;20082;-85
2022/10/08 11:20:59;;;;;;;11.32;2.33;;;;;;;;;;7367519;19;19998;-83
2022/10/08 11:23:43;;;;;;;11.38;2.40;;;;;;;;;;7373089;19;20515;-82
2022/10/08 11:26:17;;;;;;;11.88;2.28;;;;;;;;;;7366469;19;20474;-83
2022/10/08 11:29:00;;;;;;;13.38;2.38;;;;;;;;;;7369996;19;20121;-82
2022/10/08 11:31:31;;;;;;;12.40;2.35;;;;;;;;;;7370567;19;20010;-84
2022/10/08 11:33:57;;;;;;;13.32;2.60;;;;;;;;;;7375975;19;20078;-83
2022/10/08 11:36:27;;;;;;;12.75;2.88;;;;;;;;;;7375253;19;20352;-84
2022/10/08 11:38:52;;;;;;;8.60;2.13;;;;;;;;;;7369483;19;20106;-82
2022/10/08 11:41:23;;;;;;;9.63;2.10;;;;;;;;;;7374932;19;20070;-83
2022/10/08 11:43:58;;;;;;;10.48;2.47;;;;;;;;;;7374324;19;20023;-85
2022/10/08 11:46:27;;;;;;;11.40;2.45;;;;;;;;;;7370328;19;20332;-82
2022/10/08 11:48:53;;;;;;;11.10;2.30;;;;;;;;;;7373071;19;20003;-85
2022/10/08 11:51:18;;;;;;;10.40;2.50;;;;;;;;;;7367429;19;20374;-84
2022/10/08 11:54:02;;;;;;;15.27;2.53;;;;;;;;;;7375269;19;20766;-82
2022/10/08 11:56:28;;;;;;;16.55;3.15;;;;;;;;;;7370945;19;20600;-83
2022/10/08 11:58:55;;;;;;;11.05;1.90;;;;;;;;;;7375448;19;19998;-84
2022/10/08 12:01:21;;;;;;;8.20;2.38;;;;;;;;;;7358672;19;20038;-83
2022/10/08 12:03:59;;;;;;;7.05;1.90;;;;;;;;;;7373264;19;20451;-83
2022/10/08 12:06:25;;;;;;;11.18;2.50;;;;;;;;;;7373835;19;20011;-83
2022/10/08 12:08:55;;;;;;;8.18;1.95;;;;;;;;;;7347894;19;20001;-82
2022/10/08 12:11:38;;;;;;;8.30;2.00;;;;;;;;;;7363858;19;20014;-82
2022/10/08 12:14:09;;;;;;;13.40;2.00;;;;;;;;;;7373784;19;20009;-82
2022/10/08 12:16:47;;;;;;;10.90;2.10;;;;;;;;;;7373149;19;20271;-81
2022/10/08 12:19:31;;;;;;;7.65;1.80;;;;;;;;;;7371960;19;20007;-81
2022/10/08 12:21:56;;;;;;;9.10;1.98;;;;;;;;;;7375273;19;20014;-83
2022/10/08 12:24:45;;;;;;;8.02;1.95;;;;;;;;;;7372554;19;20347;-84
2022/10/08 12:27:33;;;;;;;11.98;2.55;;;;;;;;;;7377870;19;20074;-84
2022/10/08 12:30:02;;;;;;;10.57;2.38;;;;;;;;;;7379405;19;20002;-84
2022/10/08 12:32:29;;;;;;;11.25;1.77;;;;;;;;;;7373819;19;20359;-81
2022/10/08 12:34:55;;;;;;;6.05;1.77;;;;;;;;;;7370252;19;20078;-83
2022/10/08 12:37:20;;;;;;;11.40;1.85;;;;;;;;;;7377176;19;20011;-80
2022/10/08 12:39:46;;;;;;;8.15;1.52;;;;;;;;;;7376068;19;20022;-80
2022/10/08 12:42:13;;;;;;;6.90;1.48;;;;;;;;;;7373640;19;20093;-85
2022/10/08 12:44:46;;;;;;;9.43;1.77;;;;;;;;;;7373932;19;20003;-85
2022/10/08 12:47:24;;;;;;;6.80;1.60;;;;;;;;;;7377079;19;20332;-82
2022/10/08 12:49:53;;;;;;;7.85;1.45;;;;;;;;;;7378126;19;20010;-81
2022/10/08 12:52:19;;;;;;;7.30;1.55;;;;;;;;;;7380783;19;20014;-82
2022/10/08 12:54:48;;;;;;;7.18;1.50;;;;;;;;;;7379543;19;20014;-84
2022/10/08 12:57:17;;;;;;;8.38;1.77;;;;;;;;;;7370817;19;20089;-87
2022/10/08 12:59:42;;;;;;;4.97;1.20;;;;;;;;;;7361623;19;20019;-82
2022/10/08 13:02:26;;;;;;;6.67;1.60;;;;;;;;;;7360035;19;20077;-84
2022/10/08 13:04:51;;;;;;;7.97;1.65;;;;;;;;;;7376030;19;20243;-80
2022/10/08 13:07:25;;;;;;;9.47;2.00;;;;;;;;;;7378886;19;19990;-83
2022/10/08 13:09:52;;;;;;;7.00;1.88;;;;;;;;;;7378651;19;20267;-85
2022/10/08 13:12:18;;;;;;;8.23;1.90;;;;;;;;;;7363680;19;20003;-84
2022/10/08 13:14:43;;;;;;;6.07;1.80;;;;;;;;;;7376656;19;20627;-81
2022/10/08 13:17:25;;;;;;;10.23;2.50;;;;;;;;;;7375916;19;20002;-85
2022/10/08 13:20:01;;;;;;;7.45;1.73;;;;;;;;;;7377236;19;20019;-81
2022/10/08 13:22:26;;;;;;;10.25;2.28;;;;;;;;;;7382818;19;20010;-82
2022/10/08 13:24:51;;;;;;;6.57;1.47;;;;;;;;;;7378103;19;20019;-82
2022/10/08 13:27:20;;;;;;;8.65;1.80;;;;;;;;;;7372404;19;20491;-83
2022/10/08 13:29:45;;;;;;;8.50;1.63;;;;;;;;;;7379766;19;20005;-82
2022/10/08 13:32:13;;;;;;;11.60;2.37;;;;;;;;;;7378239;19;20011;-82
2022/10/08 13:34:38;;;;;;;10.75;2.47;;;;;;;;;;7368924;19;20251;-85
2022/10/08 13:37:06;;;;;;;8.25;2.28;;;;;;;;;;7376625;19;20339;-83
2022/10/08 13:39:36;;;;;;;9.82;2.10;;;;;;;;;;7366355;19;19998;-85
2022/10/08 13:42:03;;;;;;;6.43;1.73;;;;;;;;;;7370298;19;20036;-82
2022/10/08 13:44:28;;;;;;;8.35;1.52;;;;;;;;;;7377047;19;20370;-82
2022/10/08 13:46:53;;;;;;;7.20;1.40;;;;;;;;;;7373564;19;20011;-83
2022/10/08 13:49:20;;;;;;;6.07;1.33;;;;;;;;;;7362533;19;20028;-82
2022/10/08 13:51:45;;;;;;;8.68;1.52;;;;;;;;;;7375386;19;20031;-83
2022/10/08 13:54:11;;;;;;;6.00;0.95;;;;;;;;;;7378994;19;19998;-84
2022/10/08 13:56:36;;;;;;;5.90;1.15;;;;;;;;;;7373902;19;20346;-82
2022/10/08 13:59:01;;;;;;;5.57;1.40;;;;;;;;;;7367385;19;20006;-82
2022/10/08 14:01:26;;;;;;;9.37;1.33;;;;;;;;;;7355861;19;20865;-82
2022/10/08 14:03:51;;;;;;;4.70;0.97;;;;;;;;;;7377667;19;20011;-82
2022/10/08 14:06:17;;;;;;;4.87;1.10;;;;;;;;;;7354074;19;21373;-82
2022/10/08 14:08:42;;;;;;;6.53;1.13;;;;;;;;;;7375817;19;20323;-83
2022/10/08 14:11:07;;;;;;;6.05;1.58;;;;;;;;;;7362547;19;20251;-83
2022/10/08 14:13:32;;;;;;;6.53;1.00;;;;;;;;;;7354975;19;20025;-86
2022/10/08 14:15:57;;;;;;;5.90;1.30;;;;;;;;;;7312554;19;20090;-84
2022/10/08 14:18:23;;;;;;;7.40;1.40;;;;;;;;;;7322759;19;20257;-84
2022/10/08 14:20:49;;;;;;;9.55;1.50;;;;;;;;;;7305344;19;20822;-83
2022/10/08 14:23:14;;;;;;;6.45;1.15;;;;;;;;;;7366610;19;20026;-81
2022/10/08 14:25:39;;;;;;;10.25;1.83;;;;;;;;;;7380236;19;20046;-80
2022/10/08 14:28:04;;;;;;;9.73;1.58;;;;;;;;;;7385028;19;20455;-81
2022/10/08 14:30:30;;;;;;;8.23;2.00;;;;;;;;;;7379880;19;20347;-80
2022/10/08 14:32:55;;;;;;;10.25;1.33;;;;;;;;;;7373023;19;20002;-80
2022/10/08 14:35:20;;;;;;;8.30;1.60;;;;;;;;;;7374295;19;20003;-79
2022/10/08 14:37:46;;;;;;;7.03;1.30;;;;;;;;;;7386770;19;20033;-80
2022/10/08 14:40:14;;;;;;;10.33;1.40;;;;;;;;;;7374992;19;20450;-78
2022/10/08 14:42:39;;;;;;;7.65;1.10;;;;;;;;;;7378847;19;20814;-80
2022/10/08 14:45:04;;;;;;;5.57;1.20;;;;;;;;;;7391918;19;20001;-80
2022/10/08 14:47:30;;;;;;;5.38;1.00;;;;;;;;;;7381012;19;20009;-82
2022/10/08 14:49:55;;;;;;;7.60;1.33;;;;;;;;;;7389174;19;20003;-79
2022/10/08 14:52:20;;;;;;;8.90;1.42;;;;;;;;;;7393661;19;20263;-80
2022/10/08 14:54:45;;;;;;;6.78;1.48;;;;;;;;;;7377924;19;20038;-80
2022/10/08 14:57:11;;;;;;;7.63;1.48;;;;;;;;;;7389484;19;20006;-79
2022/10/08 14:59:36;;;;;;;4.35;0.90;;;;;;;;;;7391552;19;20018;-81
2022/10/08 15:02:02;;;;;;;5.95;1.33;;;;;;;;;;7392202;19;20003;-80
2022/10/08 15:04:27;;;;;;;5.82;1.27;;;;;;;;;;7384354;19;20031;-80
2022/10/08 15:06:52;;;;;;;5.20;1.20;;;;;;;;;;7388611;19;20026;-80
2022/10/08 15:09:18;;;;;;;4.63;1.40;;;;;;;;;;7380788;19;20278;-79
2022/10/08 15:11:43;;;;;;;5.95;1.20;;;;;;;;;;7384728;19;20263;-79
2022/10/08 15:14:08;;;;;;;5.03;1.08;;;;;;;;;;7384945;19;20010;-78
2022/10/08 15:16:33;;;;;;;8.32;1.15;;;;;;;;;;7377221;19;20018;-79
2022/10/08 15:18:59;;;;;;;8.57;1.17;;;;;;;;;;7351435;19;19994;-80
2022/10/08 15:21:24;;;;;;;7.30;1.70;;;;;;;;;;7382213;19;19998;-81
2022/10/08 15:23:49;;;;;;;7.53;1.55;;;;;;;;;;7383619;19;20239;-78
2022/10/08 15:26:15;;;;;;;8.55;1.90;;;;;;;;;;7378541;19;20014;-80
2022/10/08 15:28:40;;;;;;;10.43;1.90;;;;;;;;;;7389413;19;20021;-80
2022/10/08 15:31:13;;;;;;;7.70;1.60;;;;;;;;;;7382155;19;20010;-80
2022/10/08 15:33:42;;;;;;;9.05;1.60;;;;;;;;;;7378088;19;20007;-79
2022/10/08 15:36:25;;;;;;;8.82;2.05;;;;;;;;;;7383706;19;20023;-79
2022/10/08 15:38:56;;;;;;;9.88;1.63;;;;;;;;;;7375040;19;20011;-79
2022/10/08 15:41:22;;;;;;;6.45;1.63;;;;;;;;;;7376260;19;20011;-80
2022/10/08 15:43:47;;;;;;;9.05;1.73;;;;;;;;;;7384185;19;20015;-79
2022/10/08 15:46:16;;;;;;;8.53;1.80;;;;;;;;;;7377215;19;20467;-79
2022/10/08 15:48:48;;;;;;;9.18;2.22;;;;;;;;;;7375802;19;20239;-81